createdAt,value
2022-12-12T00:04:17.905Z,101132.47
2022-12-12T00:09:21.007Z,101126.94
2022-12-12T00:14:28.661Z,101125.22
2022-12-12T00:19:31.862Z,101124.41
2022-12-12T00:24:34.922Z,101128.69
2022-12-12T00:29:39.292Z,101131.50
2022-12-12T00:34:42.332Z,101132.31
2022-12-12T00:39:45.551Z,101129.94
2022-12-12T00:44:50.004Z,101128.91
2022-12-12T00:49:53.150Z,101124.75
2022-12-12T00:54:59.236Z,101128.63
2022-12-12T01:00:03.715Z,101134.91
2022-12-12T01:05:07.745Z,101123.66
2022-12-12T01:10:12.024Z,101145.94
2022-12-12T01:15:16.603Z,101137.81
2022-12-12T01:20:23.263Z,101142.53
2022-12-12T01:25:26.224Z,101139.28
2022-12-12T01:30:30.940Z,101157.97
2022-12-12T01:35:35.593Z,101155.25
2022-12-12T01:40:38.988Z,101164.50
2022-12-12T01:46:30.554Z,101165.75
2022-12-12T01:51:35.377Z,101167.03
2022-12-12T01:56:40.742Z,101168.91
2022-12-12T02:01:44.264Z,101169.66
2022-12-12T02:06:50.284Z,101176.22
2022-12-12T02:11:55.687Z,101186.22
2022-12-12T02:18:02.246Z,101182.34
2022-12-12T02:23:41.894Z,101184.00
2022-12-12T02:29:14.917Z,101181.75
2022-12-12T02:34:28.381Z,101181.75
2022-12-12T02:39:40.963Z,101179.41
2022-12-12T02:44:53.369Z,101194.84
2022-12-12T02:50:02.949Z,101192.75
2022-12-12T02:55:06.752Z,101187.34
2022-12-12T03:00:12.624Z,101191.13
2022-12-12T03:05:51.254Z,101205.41
2022-12-12T03:10:58.887Z,101204.22
2022-12-12T03:16:19.060Z,101210.00
2022-12-12T03:21:29.280Z,101200.94
2022-12-12T03:26:37.142Z,101195.34
2022-12-12T03:31:45.894Z,101190.97
2022-12-12T03:36:57.986Z,101194.75
2022-12-12T03:42:09.788Z,101194.63
2022-12-12T03:47:16.883Z,101187.38
2022-12-12T03:52:28.119Z,101192.09
2022-12-12T03:57:35.921Z,101187.28
2022-12-12T04:02:43.046Z,101194.06
2022-12-12T04:07:52.912Z,101193.50
2022-12-12T04:13:07.187Z,101191.41
2022-12-12T04:18:18.180Z,101211.25
2022-12-12T04:23:32.974Z,101206.69
2022-12-12T04:28:41.169Z,101207.28
2022-12-12T04:33:50.621Z,101216.53
2022-12-12T04:38:55.988Z,101221.25
2022-12-12T04:44:02.330Z,101221.59
2022-12-12T04:49:09.184Z,101226.56
2022-12-12T04:54:19.509Z,101222.19
2022-12-12T04:59:23.067Z,101216.75
2022-12-12T05:04:31.226Z,101213.72
2022-12-12T05:09:36.429Z,101217.50
2022-12-12T05:14:39.460Z,101225.09
2022-12-12T05:19:43.451Z,101223.28
2022-12-12T05:24:47.953Z,101220.09
2022-12-12T05:29:50.994Z,101232.34
2022-12-12T05:34:54.098Z,101225.56
2022-12-12T05:39:58.728Z,101225.56
2022-12-12T05:45:02.354Z,101228.44
2022-12-12T05:50:05.982Z,101232.66
2022-12-12T05:55:10.850Z,101240.97
2022-12-12T06:00:15.458Z,101242.38
2022-12-12T06:05:18.682Z,101240.38
2022-12-12T06:10:23.112Z,101239.63
2022-12-12T06:15:29.019Z,101261.25
2022-12-12T06:20:32.573Z,101258.53
2022-12-12T06:25:36.980Z,101257.31
2022-12-12T06:30:40.071Z,101256.69
2022-12-12T06:35:43.221Z,101258.38
2022-12-12T06:40:47.631Z,101265.19
2022-12-12T06:45:50.640Z,101262.31
2022-12-12T06:50:53.702Z,101268.97
2022-12-12T06:56:00.013Z,101270.31
2022-12-12T07:01:03.413Z,101271.84
2022-12-12T07:06:07.166Z,101279.38
2022-12-12T07:11:13.686Z,101281.78
2022-12-12T07:16:17.075Z,101286.75
2022-12-12T07:21:21.585Z,101296.91
2022-12-12T07:26:27.456Z,101305.94
2022-12-12T07:31:30.625Z,101303.84
2022-12-12T07:36:33.850Z,101311.56
2022-12-12T07:41:40.910Z,101314.69
2022-12-12T07:46:44.239Z,101314.69
2022-12-12T07:51:49.396Z,101312.41
2022-12-12T07:56:54.361Z,101326.47
2022-12-12T08:02:00.759Z,101318.31
2022-12-12T08:07:08.295Z,101327.53
2022-12-12T08:12:13.210Z,101333.75
2022-12-12T08:17:16.308Z,101345.22
2022-12-12T08:22:19.623Z,101344.47
2022-12-12T08:27:24.241Z,101353.41
2022-12-12T08:32:27.325Z,101355.53
2022-12-12T08:37:31.155Z,101360.97
2022-12-12T08:42:36.666Z,101359.19
2022-12-12T08:47:39.894Z,101360.38
2022-12-12T08:52:42.839Z,101356.91
2022-12-12T08:57:47.234Z,101357.56
2022-12-12T09:02:50.403Z,101363.03
2022-12-12T09:07:53.503Z,101369.97
2022-12-12T09:12:59.813Z,101375.31
2022-12-12T09:18:09.275Z,101374.38
2022-12-12T09:23:12.492Z,101369.78
2022-12-12T09:28:19.818Z,101357.97
2022-12-12T09:33:22.932Z,101366.06
2022-12-12T09:38:25.939Z,101360.50
2022-12-12T09:43:34.863Z,101354.19
2022-12-12T09:48:43.249Z,101361.81
2022-12-12T09:53:48.115Z,101357.31
2022-12-12T09:58:59.515Z,101350.22
2022-12-12T10:04:14.833Z,101356.41
2022-12-12T10:09:40.238Z,101354.84
2022-12-12T10:14:49.258Z,101346.03
2022-12-12T10:19:55.124Z,101341.09
2022-12-12T10:25:05.121Z,101343.97
2022-12-12T10:30:17.026Z,101348.94
2022-12-12T10:35:28.963Z,101329.19
2022-12-12T10:40:44.927Z,101330.25
2022-12-12T10:46:10.544Z,101327.28
2022-12-12T10:51:17.723Z,101328.28
2022-12-12T10:56:22.786Z,101330.50
2022-12-12T11:06:56.833Z,101331.53
2022-12-12T11:12:01.871Z,101318.97
2022-12-12T11:17:22.003Z,101336.56
2022-12-12T11:22:26.449Z,101317.03
2022-12-12T11:27:33.527Z,101323.38
2022-12-12T11:32:42.744Z,101315.06
2022-12-12T11:37:49.808Z,101318.06
2022-12-12T11:42:57.360Z,101307.19
2022-12-12T11:48:02.125Z,101306.56
2022-12-12T11:53:09.637Z,101302.16
2022-12-12T11:58:21.593Z,101296.34
2022-12-12T12:03:30.679Z,101303.59
2022-12-12T12:08:49.010Z,101299.31
2022-12-12T12:14:13.686Z,101296.97
2022-12-12T12:19:26.839Z,101309.38
2022-12-12T12:24:46.409Z,101302.41
2022-12-12T12:30:07.587Z,101291.78
2022-12-12T12:35:24.965Z,101287.13
2022-12-12T12:40:41.800Z,101284.63
2022-12-12T12:45:49.768Z,101281.50
2022-12-12T12:51:04.926Z,101291.41
2022-12-12T12:56:23.615Z,101274.81
2022-12-12T13:01:35.248Z,101274.53
2022-12-12T13:06:46.623Z,101280.06
2022-12-12T13:11:53.569Z,101279.91
2022-12-12T13:16:57.939Z,101283.75
2022-12-12T13:22:07.490Z,101278.41
2022-12-12T13:27:16.767Z,101289.25
2022-12-12T13:33:09.677Z,101281.97
2022-12-12T13:38:23.353Z,101284.72
2022-12-12T13:43:41.263Z,101277.78
2022-12-12T13:48:50.236Z,101276.09
2022-12-12T13:54:35.484Z,101273.16
2022-12-12T14:00:26.868Z,101268.66
2022-12-12T14:05:33.153Z,101258.53
2022-12-12T14:10:41.280Z,101256.09
2022-12-12T14:15:46.067Z,101271.81
2022-12-12T14:20:58.142Z,101268.88
2022-12-12T14:26:23.491Z,101281.59
2022-12-12T14:31:34.846Z,101284.44
2022-12-12T14:37:09.932Z,101300.81
2022-12-12T14:42:26.273Z,101303.69
2022-12-12T14:47:29.596Z,101303.78
2022-12-12T14:52:33.184Z,101299.81
2022-12-12T14:57:38.030Z,101303.75
2022-12-12T15:02:41.223Z,101298.75
2022-12-12T15:07:44.423Z,101301.97
2022-12-12T15:12:48.962Z,101316.75
2022-12-12T15:17:53.189Z,101316.16
2022-12-12T15:22:58.761Z,101314.84
2022-12-12T15:28:04.171Z,101313.47
2022-12-12T15:33:10.102Z,101311.47
2022-12-12T15:38:14.336Z,101320.03
2022-12-12T15:43:23.330Z,101319.63
2022-12-12T15:48:27.463Z,101324.63
2022-12-12T15:53:35.413Z,101331.19
2022-12-12T15:58:41.970Z,101343.16
2022-12-12T16:03:57.212Z,101333.03
2022-12-12T16:09:11.525Z,101331.16
2022-12-12T16:14:42.773Z,101331.78
2022-12-12T16:19:53.868Z,101334.28
2022-12-12T16:25:12.333Z,101324.53
2022-12-12T16:30:17.497Z,101328.09
2022-12-12T16:35:23.337Z,101337.88
2022-12-12T16:40:26.749Z,101331.88
2022-12-12T16:45:31.274Z,101321.63
2022-12-12T16:50:34.392Z,101315.34
2022-12-12T16:55:40.841Z,101328.72
2022-12-12T17:00:46.282Z,101330.59
2022-12-12T17:05:49.779Z,101318.09
2022-12-12T17:11:10.153Z,101330.56
2022-12-12T17:16:22.684Z,101322.59
2022-12-12T17:21:29.101Z,101327.47
2022-12-12T17:26:32.540Z,101324.47
2022-12-12T17:31:37.669Z,101316.78
2022-12-12T17:36:42.137Z,101331.78
2022-12-12T17:41:45.549Z,101326.09
2022-12-12T17:46:50.125Z,101318.53
2022-12-12T17:51:53.256Z,101331.72
2022-12-12T17:56:56.880Z,101327.31
2022-12-12T18:02:01.330Z,101326.16
2022-12-12T18:07:04.516Z,101322.22
2022-12-12T18:12:08.439Z,101324.50
2022-12-12T18:17:12.993Z,101332.25
2022-12-12T18:22:18.252Z,101324.69
2022-12-12T18:27:21.477Z,101329.22
2022-12-12T18:32:25.901Z,101330.16
2022-12-12T18:37:28.853Z,101339.56
2022-12-12T18:42:32.328Z,101330.34
2022-12-12T18:47:37.081Z,101331.41
2022-12-12T18:52:40.319Z,101343.66
2022-12-12T18:57:43.664Z,101341.38
2022-12-12T19:02:48.365Z,101335.66
2022-12-12T19:07:52.005Z,101314.00
2022-12-12T19:12:57.001Z,101333.09
2022-12-12T19:18:01.495Z,101337.75
2022-12-12T19:23:04.916Z,101333.41
2022-12-12T19:28:15.739Z,101338.97
2022-12-12T19:33:20.711Z,101339.88
2022-12-12T19:38:24.666Z,101334.13
2022-12-12T19:43:30.436Z,101350.31
2022-12-12T19:48:39.944Z,101345.47
2022-12-12T19:53:45.167Z,101345.00
2022-12-12T19:58:49.262Z,101341.81
2022-12-12T20:04:01.171Z,101328.81
2022-12-12T20:09:04.463Z,101344.34
2022-12-12T20:14:07.452Z,101336.81
2022-12-12T20:19:12.876Z,101343.44
2022-12-12T20:24:16.788Z,101341.31
2022-12-12T20:29:21.653Z,101351.88
2022-12-12T20:34:26.184Z,101335.22
2022-12-12T20:39:29.641Z,101349.13
2022-12-12T20:44:32.803Z,101343.38
2022-12-12T20:49:55.020Z,101360.09
2022-12-12T20:55:00.987Z,101355.56
2022-12-12T21:00:04.503Z,101360.25
2022-12-12T21:05:10.019Z,101358.28
2022-12-12T21:10:13.237Z,101353.88
2022-12-12T21:15:16.594Z,101356.72
2022-12-12T21:20:24.229Z,101362.44
2022-12-12T21:25:29.972Z,101360.16
2022-12-12T21:30:33.525Z,101361.34
2022-12-12T21:35:41.332Z,101357.41
2022-12-12T21:40:44.771Z,101348.41
2022-12-12T21:45:47.925Z,101362.47
2022-12-12T21:50:52.461Z,101353.22
2022-12-12T21:56:05.855Z,101352.75
2022-12-12T22:01:11.649Z,101350.59
2022-12-12T22:06:18.098Z,101354.66
2022-12-12T22:11:40.552Z,101352.34
2022-12-12T22:16:45.386Z,101361.69
2022-12-12T22:21:50.615Z,101358.50
2022-12-12T22:26:53.825Z,101354.13
2022-12-12T22:31:57.507Z,101343.63
2022-12-12T22:37:02.220Z,101361.91
2022-12-12T22:42:06.178Z,101363.41
2022-12-12T22:47:10.040Z,101358.69
2022-12-12T22:52:14.673Z,101346.38
2022-12-12T22:57:17.779Z,101361.75
2022-12-12T23:02:24.982Z,101358.72
2022-12-12T23:07:32.615Z,101356.41
2022-12-12T23:12:35.672Z,101352.78
2022-12-12T23:17:38.728Z,101351.13
2022-12-12T23:22:46.435Z,101342.94
2022-12-12T23:27:49.551Z,101342.94
2022-12-12T23:32:52.701Z,101330.56
2022-12-12T23:37:59.338Z,101333.59
2022-12-12T23:43:02.333Z,101332.69
2022-12-12T23:48:06.330Z,101333.69
2022-12-12T23:53:10.945Z,101327.72
2022-12-12T23:58:13.930Z,101331.38
